sensor_id;sensor_type;location;lat;lon;timestamp;temperature;humidity
37285;DHT22;23172;53.550;9.964;2023-02-05T00:04:58;3.20;92.80
37285;DHT22;23172;53.550;9.964;2023-02-05T00:10:01;3.10;93.00
37285;DHT22;23172;53.550;9.964;2023-02-05T00:15:04;3.20;93.00
37285;DHT22;23172;53.550;9.964;2023-02-05T00:20:07;3.20;93.10
37285;DHT22;23172;53.550;9.964;2023-02-05T00:25:11;3.20;93.20
37285;DHT22;23172;53.550;9.964;2023-02-05T00:30:13;3.10;93.20
37285;DHT22;23172;53.550;9.964;2023-02-05T00:35:14;3.10;93.30
37285;DHT22;23172;53.550;9.964;2023-02-05T00:40:18;3.00;93.30
37285;DHT22;23172;53.550;9.964;2023-02-05T00:45:20;3.00;93.30
37285;DHT22;23172;53.550;9.964;2023-02-05T00:50:22;2.90;93.40
37285;DHT22;23172;53.550;9.964;2023-02-05T00:55:25;2.80;93.30
37285;DHT22;23172;53.550;9.964;2023-02-05T01:00:27;2.80;93.40
37285;DHT22;23172;53.550;9.964;2023-02-05T01:05:29;2.70;93.40
37285;DHT22;23172;53.550;9.964;2023-02-05T01:10:33;2.60;93.50
37285;DHT22;23172;53.550;9.964;2023-02-05T01:15:35;2.60;93.60
37285;DHT22;23172;53.550;9.964;2023-02-05T01:20:37;2.50;93.60
37285;DHT22;23172;53.550;9.964;2023-02-05T01:25:40;2.50;93.70
37285;DHT22;23172;53.550;9.964;2023-02-05T01:30:46;2.40;93.80
37285;DHT22;23172;53.550;9.964;2023-02-05T01:35:48;2.30;93.90
37285;DHT22;23172;53.550;9.964;2023-02-05T01:40:51;2.20;93.90
37285;DHT22;23172;53.550;9.964;2023-02-05T01:46:20;2.20;94.00
37285;DHT22;23172;53.550;9.964;2023-02-05T01:51:22;2.20;94.00
37285;DHT22;23172;53.550;9.964;2023-02-05T01:56:30;2.10;94.00
37285;DHT22;23172;53.550;9.964;2023-02-05T02:01:32;2.10;94.10
37285;DHT22;23172;53.550;9.964;2023-02-05T02:06:35;2.20;94.10
37285;DHT22;23172;53.550;9.964;2023-02-05T02:11:41;2.20;94.10
37285;DHT22;23172;53.550;9.964;2023-02-05T02:16:44;2.10;94.10
37285;DHT22;23172;53.550;9.964;2023-02-05T02:27:36;2.30;94.40
37285;DHT22;23172;53.550;9.964;2023-02-05T02:32:41;2.40;94.10
37285;DHT22;23172;53.550;9.964;2023-02-05T02:37:48;2.50;94.10
37285;DHT22;23172;53.550;9.964;2023-02-05T02:43:01;2.50;94.00
37285;DHT22;23172;53.550;9.964;2023-02-05T02:48:05;2.50;93.80
37285;DHT22;23172;53.550;9.964;2023-02-05T02:53:10;2.50;93.80
37285;DHT22;23172;53.550;9.964;2023-02-05T02:58:18;2.60;93.80
37285;DHT22;23172;53.550;9.964;2023-02-05T03:03:23;2.60;93.70
37285;DHT22;23172;53.550;9.964;2023-02-05T03:08:30;2.50;93.70
37285;DHT22;23172;53.550;9.964;2023-02-05T03:13:36;2.50;93.80
37285;DHT22;23172;53.550;9.964;2023-02-05T03:18:38;2.50;93.90
37285;DHT22;23172;53.550;9.964;2023-02-05T03:23:40;2.50;93.80
37285;DHT22;23172;53.550;9.964;2023-02-05T03:28:43;2.50;93.80
37285;DHT22;23172;53.550;9.964;2023-02-05T03:33:55;2.50;93.70
37285;DHT22;23172;53.550;9.964;2023-02-05T03:39:10;2.50;93.60
37285;DHT22;23172;53.550;9.964;2023-02-05T03:44:27;2.40;93.70
37285;DHT22;23172;53.550;9.964;2023-02-05T03:49:36;2.40;93.70
37285;DHT22;23172;53.550;9.964;2023-02-05T03:54:45;2.40;93.80
37285;DHT22;23172;53.550;9.964;2023-02-05T03:59:54;2.40;93.70
37285;DHT22;23172;53.550;9.964;2023-02-05T04:04:57;2.40;93.80
37285;DHT22;23172;53.550;9.964;2023-02-05T04:09:59;2.30;93.70
37285;DHT22;23172;53.550;9.964;2023-02-05T04:15:03;2.30;93.80
37285;DHT22;23172;53.550;9.964;2023-02-05T04:20:08;2.30;93.90
37285;DHT22;23172;53.550;9.964;2023-02-05T04:25:10;2.30;93.80
37285;DHT22;23172;53.550;9.964;2023-02-05T04:30:13;2.40;93.80
37285;DHT22;23172;53.550;9.964;2023-02-05T04:35:15;2.40;93.70
37285;DHT22;23172;53.550;9.964;2023-02-05T04:40:17;2.40;93.70
37285;DHT22;23172;53.550;9.964;2023-02-05T04:45:21;2.40;93.70
37285;DHT22;23172;53.550;9.964;2023-02-05T04:50:23;2.40;93.70
37285;DHT22;23172;53.550;9.964;2023-02-05T04:55:25;2.30;93.70
37285;DHT22;23172;53.550;9.964;2023-02-05T05:00:28;2.40;93.70
37285;DHT22;23172;53.550;9.964;2023-02-05T05:05:30;2.40;93.60
37285;DHT22;23172;53.550;9.964;2023-02-05T05:10:32;2.40;93.60
37285;DHT22;23172;53.550;9.964;2023-02-05T05:15:35;2.30;93.70
37285;DHT22;23172;53.550;9.964;2023-02-05T05:20:37;2.30;93.80
37285;DHT22;23172;53.550;9.964;2023-02-05T05:25:40;2.20;93.80
37285;DHT22;23172;53.550;9.964;2023-02-05T05:30:44;2.20;93.90
37285;DHT22;23172;53.550;9.964;2023-02-05T05:35:47;2.20;93.90
37285;DHT22;23172;53.550;9.964;2023-02-05T05:40:48;2.20;93.90
37285;DHT22;23172;53.550;9.964;2023-02-05T05:46:09;2.20;94.10
37285;DHT22;23172;53.550;9.964;2023-02-05T05:51:11;2.20;94.10
37285;DHT22;23172;53.550;9.964;2023-02-05T05:56:13;2.30;94.10
37285;DHT22;23172;53.550;9.964;2023-02-05T06:01:18;2.30;94.00
37285;DHT22;23172;53.550;9.964;2023-02-05T06:06:22;2.30;94.00
37285;DHT22;23172;53.550;9.964;2023-02-05T06:11:24;2.40;94.00
37285;DHT22;23172;53.550;9.964;2023-02-05T06:16:27;2.40;93.90
37285;DHT22;23172;53.550;9.964;2023-02-05T06:21:29;2.30;93.90
37285;DHT22;23172;53.550;9.964;2023-02-05T06:26:31;2.30;94.00
37285;DHT22;23172;53.550;9.964;2023-02-05T06:31:34;2.20;94.00
37285;DHT22;23172;53.550;9.964;2023-02-05T06:36:36;2.20;94.10
37285;DHT22;23172;53.550;9.964;2023-02-05T06:41:38;2.20;94.10
37285;DHT22;23172;53.550;9.964;2023-02-05T06:46:41;2.30;94.10
37285;DHT22;23172;53.550;9.964;2023-02-05T06:51:43;2.30;94.10
37285;DHT22;23172;53.550;9.964;2023-02-05T06:56:45;2.30;94.00
37285;DHT22;23172;53.550;9.964;2023-02-05T07:01:48;2.30;94.10
37285;DHT22;23172;53.550;9.964;2023-02-05T07:06:51;2.30;94.20
37285;DHT22;23172;53.550;9.964;2023-02-05T07:11:54;2.40;94.10
37285;DHT22;23172;53.550;9.964;2023-02-05T07:16:57;2.30;94.00
37285;DHT22;23172;53.550;9.964;2023-02-05T07:21:59;2.30;94.10
37285;DHT22;23172;53.550;9.964;2023-02-05T07:27:01;2.20;94.20
37285;DHT22;23172;53.550;9.964;2023-02-05T07:32:05;2.20;94.20
37285;DHT22;23172;53.550;9.964;2023-02-05T07:37:06;2.20;94.20
37285;DHT22;23172;53.550;9.964;2023-02-05T07:42:08;2.20;94.20
37285;DHT22;23172;53.550;9.964;2023-02-05T07:47:11;2.20;94.30
37285;DHT22;23172;53.550;9.964;2023-02-05T07:52:13;2.30;94.40
37285;DHT22;23172;53.550;9.964;2023-02-05T07:57:15;2.30;94.30
37285;DHT22;23172;53.550;9.964;2023-02-05T08:02:18;2.40;94.30
37285;DHT22;23172;53.550;9.964;2023-02-05T08:07:20;2.50;94.20
37285;DHT22;23172;53.550;9.964;2023-02-05T08:12:22;2.60;94.10
37285;DHT22;23172;53.550;9.964;2023-02-05T08:17:25;2.60;94.10
37285;DHT22;23172;53.550;9.964;2023-02-05T08:22:27;2.70;94.00
37285;DHT22;23172;53.550;9.964;2023-02-05T08:27:31;2.70;93.90
37285;DHT22;23172;53.550;9.964;2023-02-05T08:32:34;2.80;94.00
37285;DHT22;23172;53.550;9.964;2023-02-05T08:37:36;2.90;93.90
37285;DHT22;23172;53.550;9.964;2023-02-05T08:42:37;3.00;93.80
37285;DHT22;23172;53.550;9.964;2023-02-05T08:47:41;3.00;93.70
37285;DHT22;23172;53.550;9.964;2023-02-05T08:52:43;3.10;93.70
37285;DHT22;23172;53.550;9.964;2023-02-05T08:57:44;3.20;93.70
37285;DHT22;23172;53.550;9.964;2023-02-05T09:02:48;3.30;93.50
37285;DHT22;23172;53.550;9.964;2023-02-05T09:07:49;3.40;93.50
37285;DHT22;23172;53.550;9.964;2023-02-05T09:12:51;3.50;93.30
37285;DHT22;23172;53.550;9.964;2023-02-05T09:17:55;3.60;93.10
37285;DHT22;23172;53.550;9.964;2023-02-05T09:22:56;3.60;93.20
37285;DHT22;23172;53.550;9.964;2023-02-05T09:27:58;3.60;92.90
37285;DHT22;23172;53.550;9.964;2023-02-05T09:33:02;3.60;92.80
37285;DHT22;23172;53.550;9.964;2023-02-05T09:38:03;3.60;92.80
37285;DHT22;23172;53.550;9.964;2023-02-05T09:43:19;3.60;92.80
37285;DHT22;23172;53.550;9.964;2023-02-05T09:48:44;3.60;92.70
37285;DHT22;23172;53.550;9.964;2023-02-05T09:53:59;3.60;92.70
37285;DHT22;23172;53.550;9.964;2023-02-05T09:59:03;3.70;92.70
37285;DHT22;23172;53.550;9.964;2023-02-05T10:04:07;3.70;92.60
37285;DHT22;23172;53.550;9.964;2023-02-05T10:09:24;3.80;92.70
37285;DHT22;23172;53.550;9.964;2023-02-05T10:14:39;3.90;92.50
37285;DHT22;23172;53.550;9.964;2023-02-05T10:20:11;3.90;92.60
37285;DHT22;23172;53.550;9.964;2023-02-05T10:25:33;4.10;92.50
37285;DHT22;23172;53.550;9.964;2023-02-05T10:30:41;4.30;92.30
37285;DHT22;23172;53.550;9.964;2023-02-05T10:35:50;4.40;92.10
37285;DHT22;23172;53.550;9.964;2023-02-05T10:41:04;4.60;92.00
37285;DHT22;23172;53.550;9.964;2023-02-05T10:46:12;4.70;91.90
37285;DHT22;23172;53.550;9.964;2023-02-05T10:51:18;4.80;91.80
37285;DHT22;23172;53.550;9.964;2023-02-05T10:56:21;4.80;91.80
37285;DHT22;23172;53.550;9.964;2023-02-05T11:01:28;4.90;91.60
37285;DHT22;23172;53.550;9.964;2023-02-05T11:06:37;4.90;91.50
37285;DHT22;23172;53.550;9.964;2023-02-05T11:11:40;4.80;91.30
37285;DHT22;23172;53.550;9.964;2023-02-05T11:16:43;4.70;91.50
37285;DHT22;23172;53.550;9.964;2023-02-05T11:21:50;4.80;91.50
37285;DHT22;23172;53.550;9.964;2023-02-05T11:32:35;4.80;91.20
37285;DHT22;23172;53.550;9.964;2023-02-05T11:37:39;4.80;91.10
37285;DHT22;23172;53.550;9.964;2023-02-05T11:42:47;4.90;91.20
37285;DHT22;23172;53.550;9.964;2023-02-05T11:47:50;5.00;91.00
37285;DHT22;23172;53.550;9.964;2023-02-05T11:52:54;5.10;91.10
37285;DHT22;23172;53.550;9.964;2023-02-05T11:57:58;5.30;91.10
37285;DHT22;23172;53.550;9.964;2023-02-05T12:03:03;5.40;91.00
37285;DHT22;23172;53.550;9.964;2023-02-05T12:08:12;5.50;90.90
37285;DHT22;23172;53.550;9.964;2023-02-05T12:13:21;5.60;90.80
37285;DHT22;23172;53.550;9.964;2023-02-05T12:18:33;5.70;90.70
37285;DHT22;23172;53.550;9.964;2023-02-05T12:24:09;5.70;90.40
37285;DHT22;23172;53.550;9.964;2023-02-05T12:29:22;5.80;90.50
37285;DHT22;23172;53.550;9.964;2023-02-05T12:34:34;5.70;90.40
37285;DHT22;23172;53.550;9.964;2023-02-05T12:39:45;5.70;90.60
37285;DHT22;23172;53.550;9.964;2023-02-05T12:45:02;5.70;90.50
37285;DHT22;23172;53.550;9.964;2023-02-05T12:50:20;5.60;90.60
37285;DHT22;23172;53.550;9.964;2023-02-05T12:55:39;5.80;90.60
37285;DHT22;23172;53.550;9.964;2023-02-05T13:00:49;6.10;90.50
37285;DHT22;23172;53.550;9.964;2023-02-05T13:05:54;6.30;90.20
37285;DHT22;23172;53.550;9.964;2023-02-05T13:11:02;6.20;90.10
37285;DHT22;23172;53.550;9.964;2023-02-05T13:16:09;6.10;90.20
37285;DHT22;23172;53.550;9.964;2023-02-05T13:21:15;6.10;90.20
37285;DHT22;23172;53.550;9.964;2023-02-05T13:26:40;6.10;90.20
37285;DHT22;23172;53.550;9.964;2023-02-05T13:32:03;6.20;90.00
37285;DHT22;23172;53.550;9.964;2023-02-05T13:37:23;6.20;89.80
37285;DHT22;23172;53.550;9.964;2023-02-05T13:48:17;6.20;89.20
37285;DHT22;23172;53.550;9.964;2023-02-05T13:53:45;6.20;89.20
37285;DHT22;23172;53.550;9.964;2023-02-05T13:58:53;6.10;89.10
37285;DHT22;23172;53.550;9.964;2023-02-05T14:03:59;6.10;89.50
37285;DHT22;23172;53.550;9.964;2023-02-05T14:09:05;6.00;89.70
37285;DHT22;23172;53.550;9.964;2023-02-05T14:14:29;6.00;89.80
37285;DHT22;23172;53.550;9.964;2023-02-05T14:19:51;6.10;90.00
37285;DHT22;23172;53.550;9.964;2023-02-05T14:25:00;6.10;89.50
37285;DHT22;23172;53.550;9.964;2023-02-05T14:30:34;6.10;90.10
37285;DHT22;23172;53.550;9.964;2023-02-05T14:35:38;6.00;89.60
37285;DHT22;23172;53.550;9.964;2023-02-05T14:40:40;6.00;89.60
37285;DHT22;23172;53.550;9.964;2023-02-05T14:45:46;6.00;89.60
37285;DHT22;23172;53.550;9.964;2023-02-05T14:51:00;6.00;89.60
37285;DHT22;23172;53.550;9.964;2023-02-05T14:56:04;5.90;89.70
37285;DHT22;23172;53.550;9.964;2023-02-05T15:06:47;5.80;90.00
37285;DHT22;23172;53.550;9.964;2023-02-05T15:12:02;5.80;90.20
37285;DHT22;23172;53.550;9.964;2023-02-05T15:17:35;5.80;90.30
37285;DHT22;23172;53.550;9.964;2023-02-05T15:22:46;5.90;90.30
37285;DHT22;23172;53.550;9.964;2023-02-05T15:27:54;5.80;90.40
37285;DHT22;23172;53.550;9.964;2023-02-05T15:33:01;5.80;90.40
37285;DHT22;23172;53.550;9.964;2023-02-05T15:38:21;5.80;90.50
37285;DHT22;23172;53.550;9.964;2023-02-05T15:43:25;5.80;90.60
37285;DHT22;23172;53.550;9.964;2023-02-05T15:48:29;5.80;90.60
37285;DHT22;23172;53.550;9.964;2023-02-05T15:53:36;5.80;90.70
37285;DHT22;23172;53.550;9.964;2023-02-05T15:58:46;5.80;90.80
37285;DHT22;23172;53.550;9.964;2023-02-05T16:03:49;5.70;90.80
37285;DHT22;23172;53.550;9.964;2023-02-05T16:08:53;5.80;90.80
37285;DHT22;23172;53.550;9.964;2023-02-05T16:14:05;5.80;90.90
37285;DHT22;23172;53.550;9.964;2023-02-05T16:19:12;5.80;90.90
37285;DHT22;23172;53.550;9.964;2023-02-05T16:24:23;5.80;91.00
37285;DHT22;23172;53.550;9.964;2023-02-05T16:29:29;5.70;91.20
37285;DHT22;23172;53.550;9.964;2023-02-05T16:34:34;5.70;91.40
37285;DHT22;23172;53.550;9.964;2023-02-05T16:39:45;5.80;91.60
37285;DHT22;23172;53.550;9.964;2023-02-05T16:44:48;5.80;91.70
37285;DHT22;23172;53.550;9.964;2023-02-05T16:49:51;5.80;91.80
37285;DHT22;23172;53.550;9.964;2023-02-05T16:54:57;5.80;92.00
37285;DHT22;23172;53.550;9.964;2023-02-05T17:00:02;5.70;92.10
37285;DHT22;23172;53.550;9.964;2023-02-05T17:05:07;5.60;92.50
37285;DHT22;23172;53.550;9.964;2023-02-05T17:10:16;5.50;92.80
37285;DHT22;23172;53.550;9.964;2023-02-05T17:15:30;5.50;93.00
37285;DHT22;23172;53.550;9.964;2023-02-05T17:20:34;5.50;93.10
37285;DHT22;23172;53.550;9.964;2023-02-05T17:25:39;5.50;93.20
37285;DHT22;23172;53.550;9.964;2023-02-05T17:30:42;5.50;93.50
37285;DHT22;23172;53.550;9.964;2023-02-05T17:35:44;5.50;93.60
37285;DHT22;23172;53.550;9.964;2023-02-05T17:40:47;5.50;93.90
37285;DHT22;23172;53.550;9.964;2023-02-05T17:45:49;5.50;94.10
37285;DHT22;23172;53.550;9.964;2023-02-05T17:50:51;5.50;94.20
37285;DHT22;23172;53.550;9.964;2023-02-05T17:56:00;5.50;94.30
37285;DHT22;23172;53.550;9.964;2023-02-05T18:01:01;5.50;94.30
37285;DHT22;23172;53.550;9.964;2023-02-05T18:06:04;5.50;94.80
37285;DHT22;23172;53.550;9.964;2023-02-05T18:11:07;5.50;94.60
37285;DHT22;23172;53.550;9.964;2023-02-05T18:16:09;5.40;94.80
37285;DHT22;23172;53.550;9.964;2023-02-05T18:21:11;5.40;95.00
37285;DHT22;23172;53.550;9.964;2023-02-05T18:26:14;5.40;95.10
37285;DHT22;23172;53.550;9.964;2023-02-05T18:31:16;5.30;95.20
37285;DHT22;23172;53.550;9.964;2023-02-05T18:36:18;5.30;95.60
37285;DHT22;23172;53.550;9.964;2023-02-05T18:41:22;5.30;95.30
37285;DHT22;23172;53.550;9.964;2023-02-05T18:46:25;5.30;95.40
37285;DHT22;23172;53.550;9.964;2023-02-05T18:51:28;5.20;95.60
37285;DHT22;23172;53.550;9.964;2023-02-05T18:56:32;5.30;95.60
37285;DHT22;23172;53.550;9.964;2023-02-05T19:01:36;5.20;95.80
37285;DHT22;23172;53.550;9.964;2023-02-05T19:06:40;5.20;95.90
37285;DHT22;23172;53.550;9.964;2023-02-05T19:11:43;5.20;96.30
37285;DHT22;23172;53.550;9.964;2023-02-05T19:16:46;5.10;96.00
37285;DHT22;23172;53.550;9.964;2023-02-05T19:21:49;5.10;96.10
37285;DHT22;23172;53.550;9.964;2023-02-05T19:26:54;5.00;96.20
37285;DHT22;23172;53.550;9.964;2023-02-05T19:31:58;4.90;96.40
37285;DHT22;23172;53.550;9.964;2023-02-05T19:37:00;4.90;96.50
37285;DHT22;23172;53.550;9.964;2023-02-05T19:42:03;4.90;96.50
37285;DHT22;23172;53.550;9.964;2023-02-05T19:47:06;4.80;96.60
37285;DHT22;23172;53.550;9.964;2023-02-05T20:02:15;4.80;96.70
37285;DHT22;23172;53.550;9.964;2023-02-05T20:07:18;4.90;97.20
37285;DHT22;23172;53.550;9.964;2023-02-05T20:12:21;4.90;97.10
37285;DHT22;23172;53.550;9.964;2023-02-05T21:43:10;5.00;97.10
